Time;durP1;ratioP1;P1;durP2;ratioP2;P2;SDS_P1;SDS_P2;PMS_P1;PMS_P2;Temp;Humidity;BMP_temperature;BMP_pressure;BME280_temperature;BME280_humidity;BME280_pressure;Samples;Min_cycle;Max_cycle;Signal;HPM_P1;HPM_P2
2023/02/01 00:01:29;;;;;;;14.15;4.82;;;7.00;99.90;;;;;;5042718;28;20209;-77
2023/02/01 00:04:00;;;;;;;16.55;4.18;;;7.00;99.90;;;;;;5053530;28;20227;-76
2023/02/01 00:06:27;;;;;;;20.25;6.40;;;6.90;99.90;;;;;;5049885;28;20298;-76
2023/02/01 00:08:55;;;;;;;10.57;5.25;;;6.90;99.90;;;;;;5056083;28;20224;-76
2023/02/01 00:11:23;;;;;;;14.30;3.97;;;6.90;99.90;;;;;;5055910;28;20678;-76
2023/02/01 00:13:56;;;;;;;24.60;5.72;;;6.90;99.90;;;;;;5055232;28;20236;-81
2023/02/01 00:16:25;;;;;;;13.40;5.60;;;6.80;99.90;;;;;;5026174;28;20227;-80
2023/02/01 00:19:01;;;;;;;11.45;5.35;;;6.90;99.90;;;;;;5026196;28;20266;-80
2023/02/01 00:21:35;;;;;;;23.33;7.72;;;6.90;99.90;;;;;;5052468;28;20678;-77
2023/02/01 00:24:06;;;;;;;14.43;5.68;;;6.90;99.90;;;;;;5056009;28;20298;-77
2023/02/01 00:26:35;;;;;;;21.35;9.93;;;6.90;99.90;;;;;;5056115;28;20346;-77
2023/02/01 00:29:04;;;;;;;15.23;6.50;;;6.90;99.90;;;;;;5055120;28;20225;-76
2023/02/01 00:31:41;;;;;;;11.52;6.18;;;6.90;99.90;;;;;;5048928;28;20249;-76
2023/02/01 00:34:12;;;;;;;17.33;8.18;;;6.90;99.90;;;;;;5053007;28;20224;-79
2023/02/01 00:36:39;;;;;;;12.88;8.25;;;7.00;99.90;;;;;;5028812;28;20228;-77
2023/02/01 00:39:07;;;;;;;10.93;3.72;;;7.00;99.90;;;;;;5034876;28;20282;-76
2023/02/01 00:41:34;;;;;;;7.95;3.67;;;7.00;99.90;;;;;;5056375;28;20271;-76
2023/02/01 00:44:01;;;;;;;10.00;4.65;;;7.00;99.90;;;;;;5056300;28;20240;-79
2023/02/01 00:46:29;;;;;;;17.30;3.75;;;7.00;99.90;;;;;;5056345;28;20231;-79
2023/02/01 00:48:57;;;;;;;14.80;5.35;;;7.00;99.90;;;;;;5055076;28;20317;-78
2023/02/01 00:51:27;;;;;;;7.13;2.80;;;7.00;99.90;;;;;;5049110;28;20236;-76
2023/02/01 00:53:55;;;;;;;11.90;4.32;;;7.00;99.90;;;;;;5055030;28;20220;-79
2023/02/01 00:56:22;;;;;;;8.55;5.05;;;7.00;99.90;;;;;;5050082;28;20244;-78
2023/02/01 00:58:49;;;;;;;24.05;5.32;;;7.00;99.90;;;;;;5050960;28;20697;-78
2023/02/01 01:01:19;;;;;;;12.95;6.30;;;7.00;99.90;;;;;;5055929;28;20228;-78
2023/02/01 01:03:50;;;;;;;14.52;5.18;;;7.00;99.90;;;;;;5055201;28;20225;-78
2023/02/01 01:06:21;;;;;;;13.85;6.00;;;7.00;99.90;;;;;;5055108;28;20296;-76
2023/02/01 01:08:49;;;;;;;13.68;4.72;;;7.00;99.90;;;;;;5054729;28;20630;-76
2023/02/01 01:11:18;;;;;;;7.93;3.00;;;7.00;99.90;;;;;;5055070;28;20224;-76
2023/02/01 01:13:48;;;;;;;14.55;6.07;;;7.00;99.90;;;;;;5055398;28;20228;-76
2023/02/01 01:16:15;;;;;;;9.82;4.80;;;6.90;99.90;;;;;;5053967;28;20225;-76
2023/02/01 01:18:44;;;;;;;25.77;10.00;;;7.00;99.90;;;;;;5055541;28;20287;-76
2023/02/01 01:21:14;;;;;;;5.30;3.60;;;7.00;99.90;;;;;;5053693;28;20255;-78
2023/02/01 01:23:45;;;;;;;12.45;4.43;;;7.00;99.90;;;;;;5048156;28;20233;-75
2023/02/01 01:26:16;;;;;;;19.60;5.65;;;6.90;99.90;;;;;;5048172;28;20351;-76
2023/02/01 01:28:43;;;;;;;13.65;3.80;;;6.90;99.90;;;;;;5055373;28;20516;-79
2023/02/01 01:31:11;;;;;;;10.25;4.40;;;6.90;99.90;;;;;;5053570;28;20248;-80
2023/02/01 01:33:39;;;;;;;14.82;4.72;;;6.90;99.90;;;;;;5054222;28;20232;-77
2023/02/01 01:36:09;;;;;;;11.40;5.13;;;6.90;99.90;;;;;;5053592;28;20232;-79
2023/02/01 01:38:38;;;;;;;15.82;7.75;;;6.90;99.90;;;;;;5055251;28;20673;-78
2023/02/01 01:41:06;;;;;;;11.77;6.40;;;7.00;99.90;;;;;;5054401;28;20232;-79
2023/02/01 01:43:54;;;;;;;13.02;4.45;;;6.90;99.90;;;;;;5055202;28;20324;-76
2023/02/01 01:46:23;;;;;;;11.02;3.97;;;6.90;99.90;;;;;;5053670;28;20556;-77
2023/02/01 01:48:54;;;;;;;13.90;5.70;;;6.90;99.90;;;;;;5055036;28;20300;-77
2023/02/01 01:51:24;;;;;;;17.77;8.60;;;6.90;99.90;;;;;;5055104;28;20228;-79
2023/02/01 01:54:00;;;;;;;10.77;4.32;;;6.90;99.90;;;;;;5054964;28;20220;-77
2023/02/01 01:56:32;;;;;;;13.68;4.63;;;6.90;99.90;;;;;;5054090;28;20216;-77
2023/02/01 01:59:01;;;;;;;18.73;4.95;;;6.90;99.90;;;;;;5054732;28;20224;-80
2023/02/01 02:01:29;;;;;;;15.48;7.90;;;6.90;99.90;;;;;;5053623;28;20225;-78
2023/02/01 02:03:57;;;;;;;31.88;14.30;;;6.90;99.90;;;;;;5053014;28;20256;-76
2023/02/01 02:06:40;;;;;;;17.02;7.35;;;6.80;99.90;;;;;;5052482;28;20256;-76
2023/02/01 02:09:10;;;;;;;12.93;4.20;;;6.90;99.90;;;;;;5052058;28;20225;-79
2023/02/01 02:11:39;;;;;;;14.88;5.32;;;6.90;99.90;;;;;;5054437;28;20233;-79
2023/02/01 02:14:10;;;;;;;17.55;7.70;;;6.80;99.90;;;;;;5044325;28;20601;-79
2023/02/01 02:16:48;;;;;;;11.27;4.03;;;6.80;99.90;;;;;;5053531;28;20232;-79
2023/02/01 02:19:46;;;;;;;14.65;6.68;;;6.90;99.90;;;;;;5053334;28;20243;-76
2023/02/01 02:22:48;;;;;;;14.82;4.38;;;6.80;99.90;;;;;;5053037;28;20731;-79
2023/02/01 02:25:44;;;;;;;16.50;4.32;;;6.80;99.90;;;;;;5054478;28;20623;-78
2023/02/01 02:28:32;;;;;;;23.20;7.28;;;6.80;99.90;;;;;;5053478;28;20323;-79
2023/02/01 02:31:26;;;;;;;33.13;14.77;;;6.90;99.90;;;;;;5053417;28;20320;-79
2023/02/01 02:34:11;;;;;;;15.30;5.25;;;6.90;99.90;;;;;;5053205;28;20267;-76
2023/02/01 02:36:49;;;;;;;11.43;4.38;;;6.90;99.90;;;;;;5053248;28;20244;-76
2023/02/01 02:39:24;;;;;;;23.00;10.18;;;6.90;99.90;;;;;;5054495;28;20290;-79
2023/02/01 02:47:44;;;;;;;16.23;7.15;;;7.00;99.90;;;;;;5053642;28;20270;-78
2023/02/01 03:04:17;;;;;;;7.88;3.90;;;7.00;99.90;;;;;;5053645;28;20239;-79
2023/02/01 03:06:49;;;;;;;11.68;3.75;;;7.00;99.90;;;;;;5052870;28;20570;-76
2023/02/01 03:09:22;;;;;;;15.00;7.32;;;7.10;99.90;;;;;;5053440;28;20221;-79
2023/02/01 03:14:45;;;;;;;11.57;5.47;;;7.10;99.90;;;;;;5052322;28;20302;-79
2023/02/01 03:17:18;;;;;;;17.95;4.80;;;7.10;99.90;;;;;;5051827;28;20220;-79
2023/02/01 03:19:49;;;;;;;14.32;4.50;;;7.10;99.90;;;;;;5052758;28;20757;-79
2023/02/01 03:22:24;;;;;;;12.13;4.18;;;7.10;99.90;;;;;;5053404;28;20240;-76
2023/02/01 03:24:54;;;;;;;14.75;5.70;;;7.10;99.90;;;;;;5052342;28;20286;-76
2023/02/01 03:27:25;;;;;;;22.92;8.55;;;7.10;99.90;;;;;;5053441;28;20235;-79
2023/02/01 03:30:00;;;;;;;10.77;4.13;;;7.10;99.90;;;;;;5052232;28;20290;-76
2023/02/01 03:32:27;;;;;;;9.48;3.42;;;7.10;99.90;;;;;;5052931;28;20228;-76
2023/02/01 03:34:55;;;;;;;12.18;4.10;;;7.20;99.90;;;;;;5052472;28;22904;-79
2023/02/01 03:37:28;;;;;;;8.05;3.65;;;7.20;99.90;;;;;;5052625;28;20216;-76
2023/02/01 03:40:02;;;;;;;12.07;4.50;;;7.20;99.90;;;;;;5051233;28;20240;-79
2023/02/01 03:42:39;;;;;;;18.83;7.35;;;7.20;99.90;;;;;;5052248;28;20220;-79
2023/02/01 03:45:15;;;;;;;11.93;3.92;;;7.20;99.90;;;;;;5052726;28;20220;-79
2023/02/01 03:47:46;;;;;;;10.65;4.03;;;7.20;99.90;;;;;;5052203;28;20251;-77
2023/02/01 03:50:17;;;;;;;49.25;18.00;;;7.20;99.90;;;;;;5052117;28;20255;-77
2023/02/01 03:52:51;;;;;;;15.77;4.30;;;7.20;99.90;;;;;;5052717;28;20312;-79
2023/02/01 03:55:21;;;;;;;16.05;5.45;;;7.20;99.90;;;;;;5052155;28;20236;-77
2023/02/01 03:57:55;;;;;;;19.05;5.00;;;7.10;99.90;;;;;;5052037;28;20602;-79
2023/02/01 04:00:25;;;;;;;10.15;4.63;;;7.10;99.90;;;;;;5053778;28;20425;-77
2023/02/01 04:02:53;;;;;;;10.25;4.28;;;7.10;99.90;;;;;;5051594;28;20227;-77
2023/02/01 04:05:21;;;;;;;18.38;5.05;;;7.10;99.90;;;;;;5054729;28;20220;-80
2023/02/01 04:07:50;;;;;;;17.05;6.65;;;7.10;99.90;;;;;;5053027;28;20646;-78
2023/02/01 04:10:20;;;;;;;15.40;7.80;;;7.20;99.90;;;;;;5052868;28;20267;-80
2023/02/01 04:12:47;;;;;;;11.82;5.38;;;7.20;99.90;;;;;;5051296;28;20236;-77
2023/02/01 04:15:14;;;;;;;15.57;5.10;;;7.20;99.90;;;;;;5052017;28;20346;-77
2023/02/01 04:17:41;;;;;;;14.10;4.05;;;7.10;99.90;;;;;;5051608;28;20229;-80
2023/02/01 04:20:10;;;;;;;19.38;5.35;;;7.10;99.90;;;;;;5051054;28;20696;-80
2023/02/01 04:22:37;;;;;;;11.00;4.63;;;7.00;99.90;;;;;;5052538;28;20264;-80
2023/02/01 04:25:07;;;;;;;10.27;3.33;;;7.10;99.90;;;;;;5051308;28;20678;-78
2023/02/01 04:27:35;;;;;;;15.02;6.68;;;7.20;99.90;;;;;;5052035;28;20622;-78
2023/02/01 04:30:02;;;;;;;20.25;9.93;;;7.20;99.90;;;;;;5050985;28;20580;-76
2023/02/01 04:32:30;;;;;;;22.42;6.40;;;7.20;99.90;;;;;;5052257;28;20232;-78
2023/02/01 04:34:59;;;;;;;18.02;7.45;;;7.20;99.90;;;;;;5046392;28;20316;-78
2023/02/01 04:37:26;;;;;;;21.17;5.18;;;7.30;99.90;;;;;;5050317;28;20220;-78
2023/02/01 04:39:54;;;;;;;13.20;5.93;;;7.30;99.90;;;;;;5051623;28;20248;-79
2023/02/01 04:42:23;;;;;;;9.30;4.18;;;7.30;99.90;;;;;;5053204;28;20228;-79
2023/02/01 04:44:51;;;;;;;10.10;4.13;;;7.40;99.90;;;;;;5051673;28;20307;-77
2023/02/01 04:47:18;;;;;;;18.98;7.70;;;7.40;99.90;;;;;;5052515;28;20538;-79
2023/02/01 04:49:45;;;;;;;17.40;6.03;;;7.40;99.90;;;;;;5052451;28;20248;-76
2023/02/01 04:52:12;;;;;;;11.63;3.63;;;7.40;99.90;;;;;;5054505;28;20689;-76
2023/02/01 04:54:39;;;;;;;15.45;5.00;;;7.40;99.90;;;;;;5055666;28;20312;-78
2023/02/01 04:57:06;;;;;;;7.97;3.25;;;7.40;99.90;;;;;;5045577;28;20232;-78
2023/02/01 04:59:35;;;;;;;12.75;3.90;;;7.40;99.90;;;;;;5055921;28;20231;-78
2023/02/01 05:02:05;;;;;;;10.07;3.45;;;7.50;99.90;;;;;;5055903;28;20220;-78
2023/02/01 05:04:32;;;;;;;14.05;5.47;;;7.50;99.90;;;;;;5056001;28;20220;-75
2023/02/01 05:06:59;;;;;;;16.60;5.10;;;7.50;99.90;;;;;;5055744;28;20229;-75
2023/02/01 05:09:26;;;;;;;12.50;3.97;;;7.60;99.90;;;;;;5056262;28;20245;-75
2023/02/01 05:14:38;;;;;;;10.05;4.22;;;7.60;99.90;;;;;;5055716;28;20554;-78
2023/02/01 05:17:06;;;;;;;20.15;8.43;;;7.60;99.90;;;;;;5055794;28;20263;-75
2023/02/01 05:19:34;;;;;;;20.45;5.97;;;7.60;99.90;;;;;;5055241;28;20235;-76
2023/02/01 05:22:02;;;;;;;17.25;8.07;;;7.60;99.90;;;;;;5054692;28;20231;-78
2023/02/01 05:24:30;;;;;;;16.88;4.75;;;7.60;99.90;;;;;;5056239;28;20286;-79
2023/02/01 05:26:57;;;;;;;18.65;5.90;;;7.60;99.90;;;;;;5055470;28;20327;-78
2023/02/01 05:29:25;;;;;;;11.35;4.05;;;7.70;99.90;;;;;;5056240;28;20301;-79
2023/02/01 05:31:53;;;;;;;9.38;4.28;;;7.70;99.90;;;;;;5058220;28;20252;-80
2023/02/01 05:34:20;;;;;;;13.75;5.18;;;7.70;99.90;;;;;;5058631;28;20674;-76
2023/02/01 05:36:48;;;;;;;10.93;3.75;;;7.70;99.90;;;;;;5054645;28;20282;-79
2023/02/01 05:39:15;;;;;;;14.93;4.90;;;7.70;99.90;;;;;;5062736;28;20282;-80
2023/02/01 05:41:42;;;;;;;16.98;6.20;;;7.80;99.90;;;;;;5061947;28;20239;-80
2023/02/01 05:44:09;;;;;;;22.58;8.15;;;7.70;99.90;;;;;;5063275;28;20217;-80
2023/02/01 05:46:42;;;;;;;14.48;6.40;;;7.80;99.90;;;;;;5055203;28;20240;-77
2023/02/01 05:49:11;;;;;;;12.50;4.13;;;7.70;99.90;;;;;;5055175;28;20224;-76
2023/02/01 05:51:38;;;;;;;16.08;4.43;;;7.70;99.90;;;;;;5056243;28;20229;-79
2023/02/01 05:54:05;;;;;;;23.60;6.50;;;7.70;99.90;;;;;;5054625;28;20240;-77
2023/02/01 05:56:35;;;;;;;17.55;5.32;;;7.80;99.90;;;;;;5056431;28;20220;-79
2023/02/01 05:59:05;;;;;;;20.00;4.40;;;7.70;99.90;;;;;;5054251;28;20233;-80
2023/02/01 06:01:33;;;;;;;9.52;4.13;;;7.70;99.90;;;;;;5053649;28;20567;-76
2023/02/01 06:04:00;;;;;;;14.50;4.28;;;7.70;99.90;;;;;;5054561;28;20260;-77
2023/02/01 06:06:28;;;;;;;20.65;5.88;;;7.70;99.90;;;;;;5055468;28;20224;-79
2023/02/01 06:09:01;;;;;;;14.70;4.95;;;7.70;99.90;;;;;;5055813;28;20221;-79
2023/02/01 06:11:29;;;;;;;14.15;5.40;;;7.70;99.90;;;;;;5057576;28;20220;-79
2023/02/01 06:13:57;;;;;;;15.48;5.32;;;7.80;99.90;;;;;;5067178;28;20548;-79
2023/02/01 06:16:26;;;;;;;16.85;4.72;;;7.80;99.90;;;;;;5066674;28;20653;-79
2023/02/01 06:18:53;;;;;;;16.52;5.25;;;7.80;99.90;;;;;;5059547;28;20282;-77
2023/02/01 06:21:24;;;;;;;13.90;5.70;;;7.70;99.90;;;;;;5054570;28;20689;-77
2023/02/01 06:23:53;;;;;;;22.48;5.85;;;7.70;99.90;;;;;;5052233;28;20237;-77
2023/02/01 06:26:22;;;;;;;14.50;7.00;;;7.70;99.90;;;;;;5053366;28;20240;-80
2023/02/01 06:28:50;;;;;;;13.35;4.82;;;7.70;99.90;;;;;;5055243;28;20311;-76
2023/02/01 06:31:17;;;;;;;12.32;5.07;;;7.70;99.90;;;;;;5054244;28;20228;-80
2023/02/01 06:33:45;;;;;;;7.95;4.00;;;7.70;99.90;;;;;;5053987;28;20324;-80
2023/02/01 06:36:13;;;;;;;11.98;4.55;;;7.70;99.90;;;;;;5053416;28;20232;-77
2023/02/01 06:38:40;;;;;;;13.63;4.60;;;7.70;99.90;;;;;;5053664;28;20590;-77
2023/02/01 06:41:08;;;;;;;16.27;4.95;;;7.70;99.90;;;;;;5052636;28;20347;-77
2023/02/01 06:43:41;;;;;;;18.90;5.05;;;7.70;99.90;;;;;;5054777;28;20235;-80
2023/02/01 06:46:11;;;;;;;15.35;4.30;;;7.70;99.90;;;;;;5044261;28;20228;-77
2023/02/01 06:48:38;;;;;;;19.55;5.50;;;7.70;99.90;;;;;;5052079;28;20350;-77
2023/02/01 06:51:05;;;;;;;17.67;5.55;;;7.60;99.90;;;;;;5053244;28;20237;-77
2023/02/01 06:53:32;;;;;;;17.10;5.53;;;7.60;99.90;;;;;;5053599;28;20229;-77
2023/02/01 06:56:01;;;;;;;11.48;4.50;;;7.60;99.90;;;;;;5053191;28;20325;-77
2023/02/01 06:58:32;;;;;;;12.10;5.30;;;7.60;99.90;;;;;;5053790;28;20675;-77
2023/02/01 07:01:00;;;;;;;17.38;5.00;;;7.60;99.90;;;;;;5052057;28;20297;-77
2023/02/01 07:03:27;;;;;;;15.75;4.78;;;7.60;99.90;;;;;;5053364;28;20720;-79
2023/02/01 07:06:00;;;;;;;11.05;4.00;;;7.60;99.90;;;;;;5052696;28;20220;-76
2023/02/01 07:08:28;;;;;;;15.18;6.50;;;7.70;99.90;;;;;;5052826;28;20220;-80
2023/02/01 07:10:55;;;;;;;18.77;8.13;;;7.60;99.90;;;;;;5052922;28;20236;-77
2023/02/01 07:13:22;;;;;;;13.57;4.45;;;7.60;99.90;;;;;;5051743;28;20292;-76
2023/02/01 07:15:51;;;;;;;13.30;4.95;;;7.70;99.90;;;;;;5053382;28;20229;-76
2023/02/01 07:18:18;;;;;;;16.73;5.32;;;7.70;99.90;;;;;;5043895;28;20653;-77
2023/02/01 07:20:51;;;;;;;11.63;4.93;;;7.70;99.90;;;;;;5052949;28;20228;-79
2023/02/01 07:23:19;;;;;;;11.52;4.25;;;7.70;99.90;;;;;;5053364;28;20228;-80
2023/02/01 07:25:46;;;;;;;16.30;6.50;;;7.70;99.90;;;;;;5053312;28;20229;-77
2023/02/01 07:28:13;;;;;;;23.20;7.38;;;7.60;99.90;;;;;;5052731;28;20304;-80
2023/02/01 07:30:42;;;;;;;17.23;5.50;;;7.60;99.90;;;;;;5051996;28;20236;-76
2023/02/01 07:33:13;;;;;;;11.60;5.10;;;7.60;99.90;;;;;;5050718;28;20263;-76
2023/02/01 07:35:43;;;;;;;11.45;6.15;;;7.50;99.90;;;;;;5053359;28;20270;-80
2023/02/01 07:38:10;;;;;;;17.30;10.13;;;7.50;99.90;;;;;;5052852;28;20613;-79
2023/02/01 07:40:37;;;;;;;11.57;4.60;;;7.50;99.90;;;;;;5052727;28;20298;-77
2023/02/01 07:43:05;;;;;;;11.38;5.45;;;7.60;99.90;;;;;;5052194;28;20224;-76
2023/02/01 07:45:32;;;;;;;10.70;5.55;;;7.60;99.90;;;;;;5043568;28;20281;-75
2023/02/01 07:47:59;;;;;;;16.83;7.95;;;7.60;99.90;;;;;;5052864;28;20302;-76
2023/02/01 07:50:28;;;;;;;12.93;5.35;;;7.70;99.90;;;;;;5052207;28;20236;-76
2023/02/01 07:52:55;;;;;;;9.85;4.03;;;7.70;99.90;;;;;;5052873;28;20235;-75
2023/02/01 07:55:30;;;;;;;13.05;5.80;;;7.70;99.90;;;;;;5051606;28;20685;-76
2023/02/01 07:57:59;;;;;;;7.28;4.03;;;7.60;99.90;;;;;;5053919;28;20259;-79
2023/02/01 08:03:08;;;;;;;10.32;3.75;;;7.60;99.90;;;;;;5029806;28;20239;-76
2023/02/01 08:05:37;;;;;;;9.27;3.95;;;7.60;99.90;;;;;;5051752;28;20217;-77
2023/02/01 08:08:04;;;;;;;9.32;4.30;;;7.50;99.90;;;;;;5052179;28;20298;-75
2023/02/01 08:10:31;;;;;;;14.57;5.80;;;7.50;99.90;;;;;;5051491;28;20228;-77
2023/02/01 08:13:00;;;;;;;13.18;4.80;;;7.40;99.90;;;;;;5053461;28;20293;-77
2023/02/01 08:15:28;;;;;;;9.45;4.70;;;7.40;99.90;;;;;;5053004;28;20621;-77
2023/02/01 08:17:55;;;;;;;12.55;4.70;;;7.40;99.90;;;;;;5052365;28;20225;-79
2023/02/01 08:20:23;;;;;;;8.27;4.97;;;7.40;99.90;;;;;;5051970;28;20262;-77
2023/02/01 08:22:52;;;;;;;7.13;4.20;;;7.40;99.90;;;;;;5053486;28;20220;-76
2023/02/01 08:25:19;;;;;;;10.70;4.45;;;7.30;99.90;;;;;;5042388;28;20732;-76
2023/02/01 08:27:46;;;;;;;9.25;5.60;;;7.20;99.90;;;;;;5057719;28;20661;-79
2023/02/01 08:30:14;;;;;;;11.07;4.82;;;7.30;99.90;;;;;;5057250;28;20231;-79
2023/02/01 08:32:41;;;;;;;15.00;5.90;;;7.20;99.90;;;;;;5055536;28;20220;-76
2023/02/01 08:35:09;;;;;;;6.50;4.18;;;7.20;99.90;;;;;;5056373;28;20229;-78
2023/02/01 08:37:36;;;;;;;6.70;3.15;;;7.20;99.90;;;;;;5055916;28;20252;-78
2023/02/01 08:40:06;;;;;;;4.88;3.08;;;7.20;99.90;;;;;;5056977;28;20229;-76
2023/02/01 08:45:18;;;;;;;7.80;4.40;;;7.10;99.90;;;;;;5056673;28;20374;-79
2023/02/01 08:47:46;;;;;;;12.70;4.80;;;7.10;99.90;;;;;;5055467;28;20273;-76
2023/02/01 08:50:13;;;;;;;8.82;4.55;;;7.00;99.90;;;;;;5056133;28;20308;-76
2023/02/01 08:52:42;;;;;;;9.80;4.07;;;7.00;99.90;;;;;;5047006;28;20254;-78
2023/02/01 08:55:12;;;;;;;7.85;5.35;;;7.00;99.90;;;;;;5056355;28;20224;-79
2023/02/01 08:57:39;;;;;;;6.93;4.57;;;7.00;99.90;;;;;;5055362;28;20224;-77
2023/02/01 09:00:09;;;;;;;7.10;4.03;;;6.90;99.90;;;;;;5056287;28;20259;-79
2023/02/01 09:02:44;;;;;;;8.98;5.20;;;7.00;99.90;;;;;;5055187;28;20278;-79
2023/02/01 09:05:11;;;;;;;14.73;4.80;;;6.90;99.90;;;;;;5056094;28;20264;-76
2023/02/01 09:07:39;;;;;;;6.05;4.68;;;6.90;99.90;;;;;;5054443;28;20667;-77
2023/02/01 09:10:07;;;;;;;6.90;5.50;;;6.90;99.90;;;;;;5055551;28;20555;-77
2023/02/01 09:12:36;;;;;;;10.45;5.53;;;6.90;99.90;;;;;;5054840;28;20712;-78
2023/02/01 09:15:06;;;;;;;7.00;4.85;;;6.90;99.90;;;;;;5054849;28;20571;-79
2023/02/01 09:17:34;;;;;;;12.98;5.25;;;6.90;99.90;;;;;;5055284;28;20650;-80
2023/02/01 09:20:02;;;;;;;8.20;4.38;;;6.90;99.90;;;;;;5055604;28;20229;-79
2023/02/01 09:22:29;;;;;;;15.85;5.40;;;6.90;99.90;;;;;;5055059;28;20227;-76
2023/02/01 09:24:56;;;;;;;8.55;4.95;;;6.90;99.90;;;;;;5055351;28;20225;-76
2023/02/01 09:27:23;;;;;;;4.28;2.72;;;6.90;99.90;;;;;;5055598;28;20216;-78
2023/02/01 09:29:52;;;;;;;4.20;3.03;;;6.90;99.90;;;;;;5055174;28;20224;-79
2023/02/01 09:32:20;;;;;;;3.85;2.28;;;6.90;99.90;;;;;;5055896;28;20554;-80
2023/02/01 09:34:47;;;;;;;3.92;2.55;;;6.90;99.90;;;;;;5055207;28;21378;-80
2023/02/01 09:37:14;;;;;;;5.00;1.98;;;6.90;99.90;;;;;;5054745;28;20296;-77
2023/02/01 09:39:42;;;;;;;7.47;2.45;;;6.90;99.90;;;;;;5053996;28;20235;-80
2023/02/01 09:42:22;;;;;;;2.13;1.50;;;7.00;99.90;;;;;;5055804;28;20224;-80
2023/02/01 09:45:12;;;;;;;3.60;1.80;;;7.00;99.90;;;;;;5054999;28;20238;-79
2023/02/01 09:47:48;;;;;;;3.70;2.63;;;7.10;99.90;;;;;;5054895;28;20255;-79
2023/02/01 09:50:26;;;;;;;2.53;2.13;;;7.00;99.90;;;;;;5054490;28;20228;-79
2023/02/01 09:52:58;;;;;;;4.90;2.13;;;7.00;99.90;;;;;;5054985;28;20221;-80
2023/02/01 09:55:39;;;;;;;2.88;1.60;;;7.00;99.90;;;;;;5055223;28;20228;-76
2023/02/01 09:58:13;;;;;;;7.38;5.95;;;7.00;99.90;;;;;;5055533;28;20216;-76
2023/02/01 10:00:49;;;;;;;3.63;2.42;;;7.10;99.90;;;;;;5054380;28;20298;-77
2023/02/01 10:03:16;;;;;;;2.60;2.05;;;7.10;99.90;;;;;;5054542;28;20753;-77
2023/02/01 10:06:12;;;;;;;3.97;2.33;;;7.10;99.90;;;;;;5054261;28;20274;-77
2023/02/01 10:09:02;;;;;;;2.28;1.88;;;7.10;99.90;;;;;;5046365;28;20308;-77
2023/02/01 10:11:49;;;;;;;6.25;2.40;;;7.10;99.90;;;;;;5053928;28;20220;-77
2023/02/01 10:14:33;;;;;;;7.93;2.70;;;7.10;99.90;;;;;;5055886;28;20225;-79
2023/02/01 10:17:09;;;;;;;4.80;2.75;;;7.10;99.90;;;;;;5049697;28;20263;-79
2023/02/01 10:19:44;;;;;;;7.82;4.00;;;7.00;99.90;;;;;;5055860;28;20685;-80
2023/02/01 10:22:15;;;;;;;5.30;4.05;;;7.00;99.90;;;;;;5054710;28;20282;-75
2023/02/01 10:24:47;;;;;;;9.07;6.05;;;7.00;99.90;;;;;;5054251;28;20254;-77
2023/02/01 10:27:19;;;;;;;3.78;2.35;;;7.10;99.90;;;;;;5050974;28;20239;-76
2023/02/01 10:29:52;;;;;;;5.70;2.55;;;7.10;99.90;;;;;;5042445;28;20231;-76
2023/02/01 10:32:23;;;;;;;3.35;1.98;;;7.10;99.90;;;;;;5041205;28;20272;-75
2023/02/01 10:34:56;;;;;;;6.03;2.30;;;7.10;99.90;;;;;;5049801;28;20286;-77
2023/02/01 10:37:30;;;;;;;5.32;2.17;;;7.20;99.90;;;;;;5053052;28;20224;-76
2023/02/01 10:40:00;;;;;;;6.72;4.40;;;7.20;99.90;;;;;;5054242;28;20244;-77
2023/02/01 10:42:32;;;;;;;9.13;4.63;;;7.20;99.90;;;;;;5043353;28;20225;-76
2023/02/01 10:45:07;;;;;;;10.30;4.53;;;7.20;99.90;;;;;;5047673;28;20228;-77
2023/02/01 10:47:38;;;;;;;4.95;2.55;;;7.30;99.90;;;;;;5053359;28;20603;-77
2023/02/01 10:50:16;;;;;;;7.22;2.45;;;7.20;99.90;;;;;;5054441;28;20225;-81
2023/02/01 10:52:48;;;;;;;3.15;2.38;;;7.30;99.90;;;;;;5054808;28;20239;-77
2023/02/01 10:55:41;;;;;;;8.88;3.78;;;7.30;99.90;;;;;;5053271;28;20228;-78
2023/02/01 10:58:16;;;;;;;3.55;1.98;;;7.30;99.90;;;;;;5055090;28;20233;-80
2023/02/01 11:00:49;;;;;;;3.85;1.92;;;7.20;99.90;;;;;;5055541;28;20232;-79
2023/02/01 11:03:40;;;;;;;3.05;2.40;;;7.20;99.90;;;;;;5040082;28;20221;-76
2023/02/01 11:06:18;;;;;;;5.88;2.25;;;7.20;99.90;;;;;;5040652;28;20589;-79
2023/02/01 11:08:51;;;;;;;5.75;2.55;;;7.20;99.90;;;;;;5055150;28;20220;-79
2023/02/01 11:11:18;;;;;;;8.27;4.55;;;7.20;99.90;;;;;;5055914;28;20236;-76
2023/02/01 11:13:54;;;;;;;9.10;4.80;;;7.20;99.90;;;;;;5054490;28;20286;-79
2023/02/01 11:16:22;;;;;;;7.65;5.78;;;7.20;99.90;;;;;;5046803;28;20311;-76
2023/02/01 11:18:55;;;;;;;9.27;4.15;;;7.30;99.90;;;;;;5045507;28;20252;-79
2023/02/01 11:21:23;;;;;;;9.13;5.78;;;7.30;99.90;;;;;;5058293;28;20334;-79
2023/02/01 11:23:50;;;;;;;3.88;2.33;;;7.30;99.90;;;;;;5040845;28;20491;-80
2023/02/01 11:26:24;;;;;;;6.57;2.35;;;7.30;99.90;;;;;;5053567;28;20225;-77
2023/02/01 11:28:58;;;;;;;5.47;2.90;;;7.40;99.90;;;;;;5057166;28;20304;-80
2023/02/01 11:31:28;;;;;;;5.25;3.15;;;7.40;99.90;;;;;;5052068;28;20254;-77
2023/02/01 11:34:02;;;;;;;8.73;3.75;;;7.40;99.90;;;;;;5052954;28;20300;-77
2023/02/01 11:36:32;;;;;;;5.25;2.70;;;7.50;99.90;;;;;;5052669;28;20621;-80
2023/02/01 11:39:11;;;;;;;7.45;3.03;;;7.50;99.90;;;;;;5054394;28;20274;-79
2023/02/01 11:41:57;;;;;;;9.55;5.68;;;7.60;99.90;;;;;;5052042;28;20530;-77
2023/02/01 11:44:32;;;;;;;8.80;3.67;;;7.60;99.90;;;;;;5036082;28;20299;-77
2023/02/01 11:47:28;;;;;;;8.02;3.10;;;7.70;99.90;;;;;;5041259;28;20570;-76
2023/02/01 11:49:58;;;;;;;5.47;2.45;;;7.70;99.90;;;;;;5036986;28;20618;-79
2023/02/01 11:52:59;;;;;;;5.55;3.15;;;7.80;99.90;;;;;;5054216;28;20224;-78
2023/02/01 11:55:54;;;;;;;7.53;5.82;;;7.80;99.90;;;;;;5037977;28;20666;-76
2023/02/01 11:58:46;;;;;;;6.57;3.20;;;7.90;99.90;;;;;;5040778;28;20557;-78
2023/02/01 12:01:32;;;;;;;6.72;2.90;;;7.90;99.90;;;;;;5057426;28;20604;-79
2023/02/01 12:04:31;;;;;;;6.28;3.42;;;8.00;99.90;;;;;;5038557;28;20589;-77
2023/02/01 12:07:10;;;;;;;7.78;3.40;;;8.00;99.90;;;;;;5058625;28;20564;-80
2023/02/01 12:09:54;;;;;;;11.98;3.95;;;8.00;99.90;;;;;;5057262;28;20302;-76
2023/02/01 12:12:26;;;;;;;12.27;3.83;;;8.00;99.90;;;;;;5060229;28;20231;-79
2023/02/01 12:15:07;;;;;;;9.52;3.45;;;8.10;99.90;;;;;;5058307;28;20282;-76
2023/02/01 12:18:00;;;;;;;8.50;4.55;;;8.10;99.90;;;;;;5059438;28;20288;-76
2023/02/01 12:20:57;;;;;;;7.00;4.03;;;8.20;99.90;;;;;;5059167;28;20677;-79
2023/02/01 12:23:43;;;;;;;5.78;2.80;;;8.20;99.90;;;;;;5059394;28;20565;-78
2023/02/01 12:26:35;;;;;;;5.22;2.80;;;8.30;99.90;;;;;;5058614;28;20596;-78
2023/02/01 12:29:18;;;;;;;8.00;3.20;;;8.40;99.90;;;;;;5061885;28;20231;-78
2023/02/01 12:32:08;;;;;;;4.63;2.53;;;8.40;99.90;;;;;;4984197;28;20254;-80
2023/02/01 12:35:09;;;;;;;6.20;3.33;;;8.40;99.90;;;;;;4958266;28;20607;-77
2023/02/01 12:37:55;;;;;;;7.15;3.35;;;8.40;99.90;;;;;;5015233;28;20224;-77
2023/02/01 12:40:40;;;;;;;12.07;4.78;;;8.30;99.90;;;;;;5018565;28;20286;-77
2023/02/01 12:43:21;;;;;;;10.07;3.85;;;8.30;99.90;;;;;;4952772;28;20255;-76
2023/02/01 12:45:54;;;;;;;13.77;6.28;;;8.40;99.90;;;;;;4954837;28;20563;-76
2023/02/01 12:48:32;;;;;;;18.98;8.80;;;8.40;99.90;;;;;;4957274;28;20714;-76
2023/02/01 12:51:05;;;;;;;12.63;5.95;;;8.30;99.90;;;;;;4954198;28;20251;-79
2023/02/01 12:53:44;;;;;;;7.95;4.15;;;8.30;99.90;;;;;;4957278;28;20301;-80
2023/02/01 12:56:20;;;;;;;4.25;3.15;;;8.30;99.90;;;;;;4958265;28;20327;-79
2023/02/01 12:58:50;;;;;;;10.13;3.95;;;8.30;99.90;;;;;;4960160;28;20242;-79
2023/02/01 13:01:22;;;;;;;9.30;4.40;;;8.30;99.90;;;;;;4957868;28;20233;-76
2023/02/01 13:04:01;;;;;;;6.97;3.88;;;8.40;99.90;;;;;;4958687;28;20235;-76
2023/02/01 13:06:32;;;;;;;5.13;2.40;;;8.40;99.90;;;;;;4957097;28;20588;-79
2023/02/01 13:09:04;;;;;;;11.93;6.18;;;8.30;99.90;;;;;;4959325;28;20227;-76
2023/02/01 13:11:36;;;;;;;8.18;5.32;;;8.40;99.90;;;;;;4955296;28;20227;-75
2023/02/01 13:14:09;;;;;;;7.03;4.50;;;8.40;99.90;;;;;;4955605;28;20294;-79
2023/02/01 13:16:41;;;;;;;5.68;3.10;;;8.40;99.90;;;;;;4954386;28;20286;-76
2023/02/01 13:19:15;;;;;;;6.68;3.10;;;8.30;99.90;;;;;;4955191;28;20597;-78
2023/02/01 13:21:48;;;;;;;10.20;4.03;;;8.40;99.90;;;;;;4955357;28;20220;-76
2023/02/01 13:24:36;;;;;;;9.35;3.20;;;8.40;99.90;;;;;;4956858;28;20224;-77
2023/02/01 13:27:06;;;;;;;6.88;3.13;;;8.40;99.90;;;;;;4974333;28;20302;-77
2023/02/01 13:29:35;;;;;;;6.32;3.53;;;8.40;99.90;;;;;;4957532;28;20319;-76
2023/02/01 13:32:30;;;;;;;10.38;3.75;;;8.40;99.90;;;;;;4956203;28;20277;-79
2023/02/01 13:35:24;;;;;;;9.57;3.90;;;8.50;99.90;;;;;;5038665;28;20224;-79
2023/02/01 13:38:14;;;;;;;11.13;5.75;;;8.50;99.90;;;;;;4974262;28;20247;-76
2023/02/01 13:40:45;;;;;;;5.25;2.45;;;8.50;99.90;;;;;;4935604;28;20677;-77
2023/02/01 13:43:18;;;;;;;5.30;2.72;;;8.60;99.90;;;;;;4941649;28;20221;-77
2023/02/01 13:45:50;;;;;;;6.05;2.35;;;8.60;99.90;;;;;;4975562;28;20564;-77
2023/02/01 13:48:24;;;;;;;5.80;2.15;;;8.70;99.90;;;;;;4955518;28;20250;-80